createdAt,value
2022-09-16T00:01:51.117Z,4.57
2022-09-16T00:04:18.386Z,5.00
2022-09-16T00:06:45.557Z,4.90
2022-09-16T00:09:12.687Z,4.97
2022-09-16T00:11:39.814Z,4.30
2022-09-16T00:14:06.940Z,4.40
2022-09-16T00:16:34.199Z,4.65
2022-09-16T00:19:01.836Z,4.30
2022-09-16T00:21:29.045Z,5.03
2022-09-16T00:23:56.436Z,4.65
2022-09-16T00:26:23.712Z,4.85
2022-09-16T00:28:50.922Z,4.70
2022-09-16T00:31:18.366Z,4.22
2022-09-16T00:33:45.529Z,5.07
2022-09-16T00:36:16.647Z,4.57
2022-09-16T00:38:44.031Z,4.57
2022-09-16T00:41:18.637Z,4.50
2022-09-16T00:43:54.290Z,4.45
2022-09-16T00:46:26.353Z,4.70
2022-09-16T00:48:53.603Z,4.18
2022-09-16T00:51:21.066Z,4.50
2022-09-16T00:53:52.102Z,4.35
2022-09-16T00:56:19.706Z,4.70
2022-09-16T00:58:48.976Z,4.00
2022-09-16T01:01:16.230Z,5.07
2022-09-16T01:03:55.598Z,4.72
2022-09-16T01:06:23.294Z,5.70
2022-09-16T01:08:50.624Z,4.50
2022-09-16T01:11:17.763Z,4.53
2022-09-16T01:13:44.942Z,4.22
2022-09-16T01:16:18.558Z,4.75
2022-09-16T01:18:59.681Z,4.35
2022-09-16T01:21:31.264Z,4.40
2022-09-16T01:24:25.084Z,4.38
2022-09-16T01:27:13.187Z,4.43
2022-09-16T01:29:49.258Z,4.03
2022-09-16T01:32:22.956Z,4.05
2022-09-16T01:34:50.128Z,3.97
2022-09-16T01:37:29.544Z,4.50
2022-09-16T01:40:12.233Z,4.05
2022-09-16T01:42:57.719Z,4.25
2022-09-16T01:45:40.857Z,4.40
2022-09-16T01:48:28.172Z,4.25
2022-09-16T01:51:07.864Z,4.03
2022-09-16T01:53:36.906Z,4.18
2022-09-16T01:56:10.897Z,4.20
2022-09-16T01:58:57.739Z,4.10
2022-09-16T02:01:36.702Z,3.95
2022-09-16T02:04:11.020Z,4.00
2022-09-16T02:09:16.801Z,4.15
2022-09-16T02:11:43.957Z,4.65
2022-09-16T02:14:18.295Z,4.72
2022-09-16T02:19:15.595Z,4.18
2022-09-16T02:21:45.884Z,4.43
2022-09-16T02:24:18.086Z,4.47
2022-09-16T02:26:52.381Z,4.13
2022-09-16T02:31:48.889Z,4.10
2022-09-16T02:34:20.205Z,4.55
2022-09-16T02:36:49.568Z,4.30
2022-09-16T02:39:19.746Z,4.38
2022-09-16T02:41:47.262Z,4.57
2022-09-16T02:44:14.481Z,4.47
2022-09-16T02:47:01.370Z,4.43
2022-09-16T02:49:33.634Z,4.95
2022-09-16T02:52:19.009Z,4.47
2022-09-16T02:55:12.285Z,4.50
2022-09-16T02:57:39.397Z,4.88
2022-09-16T03:00:07.086Z,4.60
2022-09-16T03:02:34.715Z,4.95
2022-09-16T03:05:02.116Z,4.40
2022-09-16T03:07:29.245Z,4.65
2022-09-16T03:09:56.364Z,4.63
2022-09-16T03:12:33.271Z,5.20
2022-09-16T03:15:30.974Z,4.88
2022-09-16T03:18:15.205Z,5.10
2022-09-16T03:21:00.419Z,4.22
2022-09-16T03:23:44.157Z,5.15
2022-09-16T03:26:35.598Z,4.90
2022-09-16T03:29:08.580Z,5.72
2022-09-16T03:31:57.555Z,5.25
2022-09-16T03:34:33.791Z,5.28
2022-09-16T03:37:06.219Z,4.75
2022-09-16T03:39:33.569Z,5.07
2022-09-16T03:42:04.976Z,5.05
2022-09-16T03:44:36.540Z,5.00
2022-09-16T03:47:04.119Z,5.78
2022-09-16T03:49:31.309Z,5.18
2022-09-16T03:51:58.597Z,5.10
2022-09-16T03:54:25.722Z,4.95
2022-09-16T03:56:52.933Z,5.25
2022-09-16T03:59:20.035Z,5.55
2022-09-16T04:01:47.770Z,5.07
2022-09-16T04:04:15.259Z,4.90
2022-09-16T04:06:42.413Z,4.80
2022-09-16T04:09:12.947Z,4.60
2022-09-16T04:11:40.225Z,4.22
2022-09-16T04:14:07.750Z,4.53
2022-09-16T04:16:34.938Z,5.32
2022-09-16T04:19:02.077Z,4.63
2022-09-16T04:21:29.387Z,5.07
2022-09-16T04:23:56.523Z,5.28
2022-09-16T04:26:23.724Z,5.40
2022-09-16T04:28:54.330Z,5.13
2022-09-16T04:31:21.578Z,5.47
2022-09-16T04:33:48.839Z,5.53
2022-09-16T04:36:17.549Z,5.20
2022-09-16T04:38:45.423Z,5.72
2022-09-16T04:41:17.722Z,5.95
2022-09-16T04:43:45.041Z,5.78
2022-09-16T04:46:12.194Z,5.63
2022-09-16T04:48:39.387Z,6.00
2022-09-16T04:51:11.121Z,6.03
2022-09-16T04:53:39.107Z,6.47
2022-09-16T04:56:07.582Z,6.72
2022-09-16T04:58:35.179Z,6.45
2022-09-16T05:01:06.858Z,6.50
2022-09-16T05:03:34.161Z,6.15
2022-09-16T05:06:06.180Z,6.78
2022-09-16T05:08:35.144Z,6.95
2022-09-16T05:11:09.667Z,7.07
2022-09-16T05:13:36.879Z,6.57
2022-09-16T05:16:05.440Z,7.00
2022-09-16T05:18:32.942Z,5.93
2022-09-16T05:21:04.747Z,6.70
2022-09-16T05:23:32.363Z,6.30
2022-09-16T05:26:10.439Z,6.15
2022-09-16T05:28:37.538Z,6.47
2022-09-16T05:31:09.594Z,6.90
2022-09-16T05:33:36.866Z,6.72
2022-09-16T05:36:08.660Z,6.55
2022-09-16T05:38:35.946Z,6.47
2022-09-16T05:41:03.639Z,7.13
2022-09-16T05:43:31.165Z,7.07
2022-09-16T05:45:58.311Z,6.60
2022-09-16T05:48:25.727Z,6.80
2022-09-16T05:51:01.146Z,6.97
2022-09-16T05:53:29.108Z,6.40
2022-09-16T05:56:13.308Z,6.75
2022-09-16T05:58:40.835Z,6.75
2022-09-16T06:01:09.042Z,6.80
2022-09-16T06:03:37.326Z,8.00
2022-09-16T06:06:04.599Z,6.85
2022-09-16T06:08:32.665Z,7.85
2022-09-16T06:11:03.929Z,7.65
2022-09-16T06:13:31.320Z,7.80
2022-09-16T06:15:58.699Z,8.63
2022-09-16T06:18:27.143Z,7.25
2022-09-16T06:20:54.337Z,7.82
2022-09-16T06:23:22.206Z,7.68
2022-09-16T06:25:49.435Z,7.50
2022-09-16T06:28:16.570Z,8.27
2022-09-16T06:30:43.731Z,9.82
2022-09-16T06:33:12.729Z,7.43
2022-09-16T06:35:39.885Z,7.90
2022-09-16T06:38:07.089Z,7.88
2022-09-16T06:40:34.212Z,8.65
2022-09-16T06:43:01.357Z,9.60
2022-09-16T06:45:29.287Z,8.98
2022-09-16T06:48:00.038Z,8.32
2022-09-16T06:50:27.225Z,8.82
2022-09-16T06:52:54.356Z,8.70
2022-09-16T06:55:21.669Z,8.57
2022-09-16T06:57:48.831Z,8.30
2022-09-16T07:00:16.076Z,8.43
2022-09-16T07:02:43.249Z,8.45
2022-09-16T07:05:11.965Z,8.48
2022-09-16T07:07:39.581Z,9.05
2022-09-16T07:10:07.474Z,8.75
2022-09-16T07:12:34.624Z,9.45
2022-09-16T07:15:02.438Z,8.52
2022-09-16T07:17:30.018Z,8.70
2022-09-16T07:19:57.178Z,8.65
2022-09-16T07:22:24.337Z,9.20
2022-09-16T07:24:51.475Z,8.45
2022-09-16T07:27:18.610Z,9.07
2022-09-16T07:29:45.741Z,9.20
2022-09-16T07:32:12.875Z,9.23
2022-09-16T07:34:40.008Z,9.20
2022-09-16T07:37:07.126Z,9.40
2022-09-16T07:39:34.244Z,8.10
2022-09-16T07:42:06.033Z,9.70
2022-09-16T07:44:33.516Z,10.27
2022-09-16T07:47:00.727Z,10.55
2022-09-16T07:49:27.876Z,9.98
2022-09-16T07:51:54.997Z,10.50
2022-09-16T07:54:22.210Z,10.55
2022-09-16T07:56:49.524Z,10.20
2022-09-16T07:59:19.096Z,9.68
2022-09-16T08:01:48.045Z,9.70
2022-09-16T08:04:15.907Z,9.85
2022-09-16T08:06:43.110Z,10.85
2022-09-16T08:09:36.807Z,10.75
2022-09-16T08:11:57.515Z,10.05
2022-09-16T08:14:24.735Z,10.65
2022-09-16T08:16:51.950Z,10.15
2022-09-16T08:19:20.362Z,9.77
2022-09-16T08:21:47.474Z,9.40
2022-09-16T08:24:14.741Z,10.48
2022-09-16T08:26:42.099Z,9.82
2022-09-16T08:29:10.387Z,9.20
2022-09-16T08:31:38.321Z,9.70
2022-09-16T08:34:06.089Z,10.02
2022-09-16T08:36:33.749Z,9.50
2022-09-16T08:39:00.985Z,9.27
2022-09-16T08:41:55.245Z,9.88
2022-09-16T08:44:34.549Z,10.35
2022-09-16T08:47:02.538Z,9.77
2022-09-16T08:49:45.741Z,9.00
2022-09-16T08:52:21.208Z,9.65
2022-09-16T08:54:51.107Z,9.38
2022-09-16T08:57:20.635Z,8.93
2022-09-16T09:00:12.719Z,8.23
2022-09-16T09:02:42.900Z,8.95
2022-09-16T09:05:25.483Z,8.40
2022-09-16T09:08:10.844Z,8.82
2022-09-16T09:10:50.455Z,8.18
2022-09-16T09:13:29.834Z,8.45
2022-09-16T09:16:12.402Z,9.30
2022-09-16T09:18:39.574Z,8.48
2022-09-16T09:21:33.801Z,9.40
2022-09-16T09:24:28.793Z,8.35
2022-09-16T09:29:40.638Z,7.90
2022-09-16T09:32:48.622Z,8.93
2022-09-16T09:35:38.514Z,8.10
2022-09-16T09:38:29.497Z,8.70
2022-09-16T09:41:19.863Z,8.93
2022-09-16T09:43:48.202Z,8.82
2022-09-16T09:46:40.256Z,8.18
2022-09-16T09:49:21.517Z,9.38
2022-09-16T09:51:52.016Z,10.25
2022-09-16T09:54:26.660Z,8.90
2022-09-16T09:56:56.954Z,8.73
2022-09-16T09:59:41.352Z,8.57
2022-09-16T10:02:30.950Z,8.23
2022-09-16T10:04:58.108Z,9.50
2022-09-16T10:07:25.619Z,8.80
2022-09-16T10:09:55.550Z,9.13
2022-09-16T10:12:34.951Z,10.82
2022-09-16T10:15:02.466Z,11.48
2022-09-16T10:17:31.382Z,12.13
2022-09-16T10:20:10.395Z,10.50
2022-09-16T10:23:41.393Z,12.63
2022-09-16T10:26:22.276Z,12.25
2022-09-16T10:29:14.992Z,13.38
2022-09-16T10:31:44.832Z,12.63
2022-09-16T10:34:34.120Z,13.27
2022-09-16T10:37:21.656Z,15.15
2022-09-16T10:39:56.611Z,14.32
2022-09-16T10:42:25.928Z,14.77
2022-09-16T10:45:02.322Z,15.13
2022-09-16T10:47:32.797Z,16.08
2022-09-16T10:50:05.228Z,10.93
2022-09-16T10:52:42.948Z,7.88
2022-09-16T10:55:20.307Z,6.65
2022-09-16T10:57:47.438Z,6.10
2022-09-16T11:00:22.834Z,7.15
2022-09-16T11:03:06.997Z,7.85
2022-09-16T11:05:58.616Z,6.78
2022-09-16T11:08:44.165Z,7.05
2022-09-16T11:11:36.182Z,7.88
2022-09-16T11:14:34.550Z,7.68
2022-09-16T11:20:28.499Z,7.22
2022-09-16T11:23:06.205Z,7.80
2022-09-16T11:26:13.094Z,7.43
2022-09-16T11:29:03.623Z,8.60
2022-09-16T11:31:45.870Z,8.40
2022-09-16T11:34:52.382Z,8.32
2022-09-16T11:37:25.413Z,7.60
2022-09-16T11:40:39.271Z,8.68
2022-09-16T11:43:31.508Z,5.90
2022-09-16T11:46:04.011Z,6.28
2022-09-16T11:48:51.575Z,5.30
2022-09-16T11:51:44.283Z,5.63
2022-09-16T11:54:16.662Z,6.00
2022-09-16T11:56:50.168Z,5.63
2022-09-16T11:59:31.509Z,6.57
2022-09-16T12:02:18.001Z,5.95
2022-09-16T12:05:43.958Z,6.00
2022-09-16T12:08:23.609Z,5.57
2022-09-16T12:11:06.180Z,5.47
2022-09-16T12:14:05.524Z,6.20
2022-09-16T12:16:43.856Z,5.93
2022-09-16T12:19:23.713Z,5.50
2022-09-16T12:21:59.392Z,6.03
2022-09-16T12:24:42.309Z,5.80
2022-09-16T12:27:34.852Z,6.15
2022-09-16T12:30:53.229Z,5.78
2022-09-16T12:33:32.989Z,5.72
2022-09-16T12:36:04.341Z,6.00
2022-09-16T12:38:31.689Z,6.18
2022-09-16T12:41:26.667Z,6.40
2022-09-16T12:44:35.875Z,6.03
2022-09-16T12:47:29.330Z,6.70
2022-09-16T12:50:19.848Z,6.47
2022-09-16T12:53:55.010Z,4.82
2022-09-16T12:56:50.447Z,5.28
2022-09-16T13:00:03.097Z,5.13
2022-09-16T13:02:56.874Z,4.50
2022-09-16T13:05:33.582Z,4.88
2022-09-16T13:08:47.673Z,4.82
2022-09-16T13:12:16.561Z,4.97
2022-09-16T13:14:22.870Z,4.40
2022-09-16T13:16:55.254Z,4.63
2022-09-16T13:19:32.490Z,3.70
2022-09-16T13:22:15.324Z,3.83
2022-09-16T13:24:45.758Z,3.75
2022-09-16T13:27:40.222Z,4.20
2022-09-16T13:30:11.998Z,3.65
2022-09-16T13:32:58.108Z,4.13
2022-09-16T13:35:32.554Z,4.10
2022-09-16T13:38:00.623Z,4.43
2022-09-16T13:40:29.887Z,4.22
2022-09-16T13:43:13.388Z,4.65
2022-09-16T13:45:42.505Z,4.50
2022-09-16T13:48:23.459Z,4.85
2022-09-16T13:50:57.751Z,4.00
2022-09-16T13:54:04.370Z,3.60
2022-09-16T13:56:49.306Z,5.15
2022-09-16T13:59:22.564Z,4.10
2022-09-16T14:02:31.226Z,3.92
2022-09-16T14:05:37.152Z,4.82
2022-09-16T14:08:13.211Z,4.50
2022-09-16T14:11:02.935Z,4.63
2022-09-16T14:13:37.540Z,4.68
2022-09-16T14:16:23.001Z,5.03
2022-09-16T14:19:04.358Z,5.35
2022-09-16T14:21:31.857Z,4.68
2022-09-16T14:24:35.996Z,4.95
2022-09-16T14:27:03.491Z,4.93
2022-09-16T14:29:31.106Z,4.60
2022-09-16T14:31:58.447Z,5.18
2022-09-16T14:34:36.849Z,4.88
2022-09-16T14:37:04.439Z,5.03
2022-09-16T14:39:31.774Z,5.00
2022-09-16T14:42:02.728Z,4.80
2022-09-16T14:44:36.526Z,5.10
2022-09-16T14:47:32.403Z,4.78
2022-09-16T14:50:15.606Z,5.38
2022-09-16T14:53:13.274Z,5.05
2022-09-16T14:55:49.613Z,4.97
2022-09-16T14:58:16.893Z,4.95
2022-09-16T15:00:50.322Z,4.78
2022-09-16T15:03:28.164Z,4.97
2022-09-16T15:05:55.712Z,5.15
2022-09-16T15:08:34.755Z,5.00
2022-09-16T15:11:24.455Z,4.85
2022-09-16T15:14:00.082Z,4.80
2022-09-16T15:16:27.407Z,5.30
2022-09-16T15:19:01.629Z,4.75
2022-09-16T15:21:34.623Z,4.70
2022-09-16T15:24:18.315Z,5.00
2022-09-16T15:26:46.308Z,5.47
2022-09-16T15:29:43.697Z,5.32
2022-09-16T15:32:31.737Z,5.25
2022-09-16T15:35:36.377Z,5.30
2022-09-16T15:38:13.223Z,5.43
2022-09-16T15:40:40.620Z,5.63
2022-09-16T15:43:30.804Z,5.55
2022-09-16T15:46:03.587Z,5.57
2022-09-16T15:48:34.052Z,6.18
2022-09-16T15:51:10.437Z,6.63
2022-09-16T15:53:43.399Z,5.82
2022-09-16T15:56:24.969Z,6.15
2022-09-16T15:58:57.445Z,6.55
2022-09-16T16:01:41.555Z,6.03
2022-09-16T16:04:10.990Z,6.50
2022-09-16T16:07:01.862Z,6.25
2022-09-16T16:09:34.249Z,6.88
2022-09-16T16:12:12.483Z,5.68
2022-09-16T16:14:44.894Z,6.10
2022-09-16T16:17:15.918Z,5.85
2022-09-16T16:19:43.999Z,5.78
2022-09-16T16:22:12.165Z,6.10
2022-09-16T16:24:39.687Z,5.72
2022-09-16T16:27:08.431Z,5.60
2022-09-16T16:29:35.942Z,5.82
2022-09-16T16:32:13.361Z,5.82
2022-09-16T16:34:42.602Z,5.72
2022-09-16T16:37:27.943Z,5.60
2022-09-16T16:40:10.121Z,5.72
2022-09-16T16:42:37.643Z,5.60
2022-09-16T16:45:05.680Z,5.78
2022-09-16T16:47:33.218Z,6.00
2022-09-16T16:50:01.756Z,5.72
2022-09-16T16:52:29.224Z,5.97
2022-09-16T16:54:56.633Z,6.28
2022-09-16T16:57:24.135Z,6.05
2022-09-16T17:00:03.065Z,6.20
2022-09-16T17:02:30.542Z,6.30
2022-09-16T17:05:01.193Z,6.30
2022-09-16T17:07:29.785Z,6.05
2022-09-16T17:09:57.463Z,6.10
2022-09-16T17:12:28.711Z,6.00
2022-09-16T17:15:26.085Z,6.05
2022-09-16T17:17:58.427Z,6.00
2022-09-16T17:20:26.006Z,6.00
2022-09-16T17:22:53.501Z,5.80
2022-09-16T17:25:21.246Z,6.00
2022-09-16T17:27:49.742Z,6.20
2022-09-16T17:30:21.019Z,5.32
2022-09-16T17:32:50.652Z,5.45
2022-09-16T17:35:21.123Z,5.72
2022-09-16T17:37:49.230Z,5.38
2022-09-16T17:40:26.794Z,6.18
2022-09-16T17:43:32.034Z,5.60
2022-09-16T17:46:01.338Z,6.05
2022-09-16T17:48:31.155Z,5.88
2022-09-16T17:51:01.467Z,6.00
2022-09-16T17:53:41.366Z,6.38
2022-09-16T17:56:10.291Z,6.28
2022-09-16T17:58:42.896Z,6.15
2022-09-16T18:01:15.288Z,6.32
2022-09-16T18:03:46.695Z,6.00
2022-09-16T18:06:19.914Z,5.97
2022-09-16T18:08:48.108Z,6.63
2022-09-16T18:11:19.353Z,6.25
2022-09-16T18:13:58.508Z,6.22
2022-09-16T18:16:37.724Z,7.82
2022-09-16T18:19:05.991Z,6.32
2022-09-16T18:21:33.873Z,8.20
2022-09-16T18:24:02.674Z,7.43
2022-09-16T18:26:32.884Z,6.38
2022-09-16T18:29:18.989Z,6.45
2022-09-16T18:31:52.377Z,6.57
2022-09-16T18:34:20.169Z,6.47
2022-09-16T18:36:50.964Z,6.05
2022-09-16T18:39:19.642Z,6.13
2022-09-16T18:41:47.106Z,6.55
2022-09-16T18:44:16.879Z,6.53
2022-09-16T18:46:44.478Z,7.07
2022-09-16T18:50:07.149Z,6.50
2022-09-16T18:52:34.536Z,6.00
2022-09-16T18:55:10.272Z,6.15
2022-09-16T18:57:37.893Z,6.38
2022-09-16T19:00:09.308Z,8.75
2022-09-16T19:02:37.504Z,6.68
2022-09-16T19:05:05.553Z,6.97
2022-09-16T19:07:33.998Z,6.60
2022-09-16T19:10:01.770Z,6.80
2022-09-16T19:12:37.105Z,6.25
2022-09-16T19:15:06.889Z,6.72
2022-09-16T19:17:45.471Z,5.90
2022-09-16T19:20:12.809Z,6.22
2022-09-16T19:22:45.193Z,6.95
2022-09-16T19:25:13.466Z,7.10
2022-09-16T19:27:43.914Z,7.20
2022-09-16T19:30:11.594Z,6.55
2022-09-16T19:32:47.374Z,6.50
2022-09-16T19:35:15.615Z,7.05
2022-09-16T19:37:43.004Z,6.00
2022-09-16T19:40:11.804Z,6.13
2022-09-16T19:42:49.624Z,6.78
2022-09-16T19:45:17.007Z,6.60
2022-09-16T19:48:11.329Z,6.43
2022-09-16T19:50:39.352Z,6.65
2022-09-16T19:53:08.675Z,7.00
2022-09-16T19:55:35.909Z,6.95
2022-09-16T19:58:33.620Z,7.25
2022-09-16T20:01:02.026Z,6.75
2022-09-16T20:04:21.108Z,6.70
2022-09-16T20:06:48.753Z,6.80
2022-09-16T20:09:22.185Z,7.22
2022-09-16T20:11:49.474Z,7.10
2022-09-16T20:14:43.805Z,6.35
2022-09-16T20:17:11.047Z,6.15
2022-09-16T20:19:38.387Z,6.75
2022-09-16T20:22:05.694Z,6.18
2022-09-16T20:24:33.024Z,6.93
2022-09-16T20:27:04.807Z,6.82
2022-09-16T20:29:32.036Z,7.32
2022-09-16T20:31:59.419Z,7.00
2022-09-16T20:34:26.771Z,6.13
2022-09-16T20:37:04.169Z,6.28
2022-09-16T20:39:31.424Z,7.05
2022-09-16T20:42:31.421Z,6.35
2022-09-16T20:44:58.653Z,6.03
2022-09-16T20:47:55.221Z,6.38
2022-09-16T20:50:22.668Z,6.80
2022-09-16T20:52:53.330Z,6.57
2022-09-16T20:55:32.093Z,5.75
2022-09-16T20:57:59.289Z,6.35
2022-09-16T21:00:55.560Z,5.97
2022-09-16T21:03:22.821Z,6.20
2022-09-16T21:06:08.435Z,6.13
2022-09-16T21:08:38.701Z,5.90
2022-09-16T21:11:43.837Z,5.88
2022-09-16T21:14:12.313Z,6.30
2022-09-16T21:16:40.920Z,6.80
2022-09-16T21:19:09.756Z,6.15
2022-09-16T21:21:39.430Z,6.20
2022-09-16T21:24:07.313Z,6.05
2022-09-16T21:27:00.344Z,5.95
2022-09-16T21:29:27.684Z,6.38
2022-09-16T21:32:22.312Z,6.00
2022-09-16T21:34:49.543Z,6.28
2022-09-16T21:41:43.596Z,6.15
2022-09-16T21:48:37.536Z,6.47
2022-09-16T21:51:35.435Z,7.10
2022-09-16T21:54:03.777Z,7.90
2022-09-16T21:56:31.307Z,7.07
2022-09-16T21:58:59.547Z,6.32
2022-09-16T22:01:28.585Z,7.32
2022-09-16T22:04:47.013Z,7.45
2022-09-16T22:08:06.955Z,6.88
2022-09-16T22:10:34.271Z,6.93
2022-09-16T22:13:01.726Z,6.82
2022-09-16T22:15:34.443Z,6.28
2022-09-16T22:18:02.309Z,7.20
2022-09-16T22:20:29.601Z,7.10
2022-09-16T22:22:56.946Z,7.03
2022-09-16T22:25:24.248Z,7.22
2022-09-16T22:28:21.013Z,7.18
2022-09-16T22:30:48.285Z,7.22
2022-09-16T22:33:15.542Z,6.80
2022-09-16T22:40:02.254Z,6.65
2022-09-16T22:42:35.426Z,6.28
2022-09-16T22:45:02.686Z,6.65
2022-09-16T22:47:30.018Z,6.90
2022-09-16T22:50:08.059Z,6.13
2022-09-16T22:52:35.344Z,5.80
2022-09-16T22:55:02.639Z,5.55
2022-09-16T22:57:37.955Z,5.60
2022-09-16T23:00:05.759Z,6.18
2022-09-16T23:02:33.049Z,4.90
2022-09-16T23:05:07.307Z,5.30
2022-09-16T23:10:01.889Z,5.35
2022-09-16T23:12:53.246Z,5.55
2022-09-16T23:15:20.453Z,6.10
2022-09-16T23:17:47.699Z,5.85
2022-09-16T23:20:40.174Z,5.70
2022-09-16T23:23:07.410Z,6.38
2022-09-16T23:25:34.918Z,6.32
2022-09-16T23:28:58.958Z,6.40
2022-09-16T23:31:30.904Z,6.47
2022-09-16T23:33:58.515Z,7.00
2022-09-16T23:36:27.520Z,6.80
2022-09-16T23:38:55.002Z,6.78
2022-09-16T23:41:47.143Z,6.25
2022-09-16T23:44:15.850Z,6.25
2022-09-16T23:46:43.320Z,6.63
2022-09-16T23:49:10.810Z,6.60
2022-09-16T23:51:39.049Z,6.28
2022-09-16T23:54:06.335Z,6.43
2022-09-16T23:56:43.052Z,6.35
